createdAt,value
2018-03-16T00:01:31.288Z,8.90
2018-03-16T00:04:00.056Z,9.85
2018-03-16T00:06:28.055Z,9.73
2018-03-16T00:08:56.039Z,10.35
2018-03-16T00:11:24.851Z,9.18
2018-03-16T00:13:53.625Z,8.70
2018-03-16T00:16:21.627Z,9.20
2018-03-16T00:18:49.610Z,8.60
2018-03-16T00:21:18.372Z,9.70
2018-03-16T00:23:46.360Z,9.65
2018-03-16T00:26:14.534Z,10.50
2018-03-16T00:28:42.540Z,10.30
2018-03-16T00:31:10.525Z,9.15
2018-03-16T00:33:38.525Z,9.80
2018-03-16T00:36:06.530Z,9.73
2018-03-16T00:38:34.524Z,10.32
2018-03-16T00:41:02.531Z,10.13
2018-03-16T00:43:30.528Z,9.60
2018-03-16T00:45:58.517Z,9.68
2018-03-16T00:48:26.529Z,10.57
2018-03-16T00:50:55.307Z,10.60
2018-03-16T00:53:23.289Z,9.82
2018-03-16T00:55:51.335Z,9.63
2018-03-16T00:58:19.312Z,10.23
2018-03-16T01:00:47.301Z,12.05
2018-03-16T01:03:15.300Z,9.95
2018-03-16T01:05:43.308Z,10.13
2018-03-16T01:08:11.300Z,10.60
2018-03-16T01:10:40.073Z,11.63
2018-03-16T01:13:08.072Z,9.60
2018-03-16T01:15:36.065Z,10.23
2018-03-16T01:18:04.068Z,9.95
2018-03-16T01:20:37.880Z,10.68
2018-03-16T01:23:06.712Z,10.20
2018-03-16T01:25:35.713Z,10.90
2018-03-16T01:28:03.741Z,10.05
2018-03-16T01:30:31.817Z,10.68
2018-03-16T01:32:59.849Z,9.82
2018-03-16T01:35:28.659Z,11.23
2018-03-16T01:37:56.714Z,9.70
2018-03-16T01:40:24.748Z,9.38
2018-03-16T01:42:52.801Z,10.02
2018-03-16T01:45:21.596Z,11.88
2018-03-16T01:47:50.408Z,9.75
2018-03-16T01:50:19.229Z,10.95
2018-03-16T01:55:42.946Z,10.30
2018-03-16T01:58:10.997Z,10.23
2018-03-16T02:00:39.801Z,10.15
2018-03-16T02:03:08.616Z,9.70
2018-03-16T02:05:37.432Z,10.95
2018-03-16T02:08:05.464Z,10.30
2018-03-16T02:10:33.525Z,10.75
2018-03-16T02:13:01.557Z,11.50
2018-03-16T02:15:30.381Z,9.80
2018-03-16T02:17:58.529Z,10.07
2018-03-16T02:20:26.576Z,9.98
2018-03-16T02:22:54.624Z,12.25
2018-03-16T02:25:23.425Z,12.20
2018-03-16T02:27:52.255Z,10.00
2018-03-16T02:30:20.292Z,11.27
2018-03-16T02:32:48.340Z,10.93
2018-03-16T02:35:16.394Z,11.10
2018-03-16T02:37:44.437Z,10.57
2018-03-16T02:40:12.489Z,12.48
2018-03-16T02:42:40.525Z,12.05
2018-03-16T02:45:09.345Z,12.90
2018-03-16T02:47:37.398Z,11.40
2018-03-16T02:50:06.195Z,10.73
2018-03-16T02:52:34.250Z,12.23
2018-03-16T02:55:02.287Z,11.20
2018-03-16T02:57:31.101Z,10.90
2018-03-16T02:59:59.160Z,11.90
2018-03-16T03:02:28.740Z,12.32
2018-03-16T03:04:56.798Z,11.70
2018-03-16T03:07:24.836Z,11.80
2018-03-16T03:09:52.884Z,13.48
2018-03-16T03:12:21.064Z,11.27
2018-03-16T03:14:49.092Z,13.82
2018-03-16T03:17:17.921Z,12.00
2018-03-16T03:19:45.957Z,11.80
2018-03-16T03:22:14.008Z,10.48
2018-03-16T03:24:42.041Z,11.80
2018-03-16T03:27:10.097Z,12.48
2018-03-16T03:29:38.137Z,11.93
2018-03-16T03:32:06.187Z,12.57
2018-03-16T03:34:34.249Z,13.07
2018-03-16T03:37:02.284Z,10.00
2018-03-16T03:39:30.345Z,10.75
2018-03-16T03:41:59.144Z,10.32
2018-03-16T03:44:27.204Z,11.38
2018-03-16T03:46:55.257Z,10.30
2018-03-16T03:49:23.293Z,11.02
2018-03-16T03:51:52.852Z,11.88
2018-03-16T03:54:20.897Z,11.23
2018-03-16T03:56:48.948Z,12.98
2018-03-16T03:59:16.988Z,11.48
2018-03-16T04:01:45.801Z,11.15
2018-03-16T04:04:13.886Z,10.57
2018-03-16T04:06:42.684Z,11.35
2018-03-16T04:09:10.733Z,11.95
2018-03-16T04:11:38.766Z,12.88
2018-03-16T04:14:06.820Z,10.50
2018-03-16T04:16:35.620Z,11.40
2018-03-16T04:19:04.450Z,10.48
2018-03-16T04:21:32.488Z,12.35
2018-03-16T04:24:02.044Z,10.80
2018-03-16T04:26:30.100Z,10.90
2018-03-16T04:28:58.128Z,11.40
2018-03-16T04:31:26.186Z,12.37
2018-03-16T04:33:55.007Z,13.00
2018-03-16T04:36:23.046Z,11.60
2018-03-16T04:38:51.099Z,11.50
2018-03-16T04:41:19.149Z,11.35
2018-03-16T04:43:47.192Z,12.20
2018-03-16T04:46:15.251Z,13.10
2018-03-16T04:48:43.280Z,12.73
2018-03-16T04:51:12.097Z,12.52
2018-03-16T04:53:40.132Z,11.07
2018-03-16T04:56:08.188Z,12.88
2018-03-16T04:58:36.241Z,11.45
2018-03-16T05:01:04.272Z,12.43
2018-03-16T05:03:32.328Z,13.62
2018-03-16T05:06:00.368Z,11.48
2018-03-16T05:08:28.422Z,13.10
2018-03-16T05:10:56.452Z,13.27
2018-03-16T05:13:25.270Z,11.85
2018-03-16T05:15:53.304Z,13.27
2018-03-16T05:18:21.352Z,11.85
2018-03-16T05:20:49.405Z,11.93
2018-03-16T05:23:18.206Z,12.35
2018-03-16T05:25:47.025Z,12.20
2018-03-16T05:28:15.060Z,12.48
2018-03-16T05:30:43.120Z,11.18
2018-03-16T05:33:11.177Z,10.15
2018-03-16T05:35:39.221Z,10.70
2018-03-16T05:38:07.273Z,11.50
2018-03-16T05:40:35.313Z,12.77
2018-03-16T05:43:04.134Z,12.93
2018-03-16T05:45:32.169Z,12.25
2018-03-16T05:48:00.225Z,13.82
2018-03-16T05:50:28.273Z,11.70
2018-03-16T05:52:56.333Z,12.52
2018-03-16T05:55:25.148Z,13.90
2018-03-16T05:57:53.948Z,13.10
2018-03-16T06:00:22.780Z,10.98
2018-03-16T06:02:50.816Z,12.77
2018-03-16T06:05:18.869Z,13.70
2018-03-16T06:07:46.900Z,11.52
2018-03-16T06:10:15.718Z,12.35
2018-03-16T06:12:43.749Z,13.32
2018-03-16T06:15:11.800Z,11.77
2018-03-16T06:17:39.861Z,12.80
2018-03-16T06:20:08.656Z,13.52
2018-03-16T06:22:37.477Z,13.10
2018-03-16T06:25:05.513Z,13.95
2018-03-16T06:27:33.568Z,13.20
2018-03-16T06:30:01.604Z,13.43
2018-03-16T06:32:30.421Z,12.45
2018-03-16T06:34:58.468Z,13.10
2018-03-16T06:37:26.500Z,14.52
2018-03-16T06:39:54.552Z,13.02
2018-03-16T06:42:23.361Z,12.27
2018-03-16T06:44:52.337Z,13.73
2018-03-16T06:47:20.220Z,13.65
2018-03-16T06:49:48.273Z,13.05
2018-03-16T06:52:16.330Z,13.25
2018-03-16T06:54:44.372Z,12.63
2018-03-16T06:57:12.419Z,13.80
2018-03-16T06:59:40.445Z,16.10
2018-03-16T07:02:08.500Z,12.65
2018-03-16T07:04:36.552Z,12.95
2018-03-16T07:07:04.580Z,12.30
2018-03-16T07:09:32.637Z,12.45
2018-03-16T07:12:00.672Z,15.65
2018-03-16T07:14:29.491Z,12.35
2018-03-16T07:17:00.242Z,13.70
2018-03-16T07:19:28.304Z,14.10
2018-03-16T07:21:56.357Z,14.00
2018-03-16T07:24:24.388Z,14.57
2018-03-16T07:26:53.224Z,14.35
2018-03-16T07:29:21.284Z,13.80
2018-03-16T07:31:49.344Z,14.15
2018-03-16T07:34:18.145Z,13.45
2018-03-16T07:36:46.969Z,13.30
2018-03-16T07:39:15.004Z,13.43
2018-03-16T07:41:43.093Z,14.43
2018-03-16T07:44:11.144Z,13.10
2018-03-16T07:46:39.181Z,12.93
2018-03-16T07:49:08.004Z,13.85
2018-03-16T07:51:36.037Z,11.88
2018-03-16T07:54:04.191Z,11.70
2018-03-16T07:56:32.235Z,11.93
2018-03-16T07:59:00.288Z,14.32
2018-03-16T08:01:28.345Z,12.25
2018-03-16T08:03:56.385Z,13.00
2018-03-16T08:06:24.448Z,13.77
2018-03-16T08:08:52.482Z,12.45
2018-03-16T08:11:20.537Z,12.98
2018-03-16T08:13:49.337Z,12.93
2018-03-16T08:16:17.389Z,11.98
2018-03-16T08:18:45.436Z,11.73
2018-03-16T08:21:13.472Z,13.32
2018-03-16T08:23:41.528Z,11.05
2018-03-16T08:26:09.556Z,12.27
2018-03-16T08:28:37.620Z,11.45
2018-03-16T08:31:05.653Z,11.23
2018-03-16T08:33:33.702Z,10.20
2018-03-16T08:36:01.760Z,10.90
2018-03-16T08:38:29.794Z,11.43
2018-03-16T08:40:58.613Z,11.73
2018-03-16T08:43:26.650Z,10.02
2018-03-16T08:45:54.704Z,8.70
2018-03-16T08:48:22.733Z,10.77
2018-03-16T08:50:51.548Z,10.75
2018-03-16T08:53:19.600Z,11.57
2018-03-16T08:55:47.636Z,11.30
2018-03-16T08:58:15.697Z,10.13
2018-03-16T09:00:44.488Z,11.90
2018-03-16T09:03:13.306Z,10.05
2018-03-16T09:05:41.348Z,11.10
2018-03-16T09:08:09.409Z,9.65
2018-03-16T09:10:37.460Z,11.65
2018-03-16T09:13:05.494Z,9.48
2018-03-16T09:15:33.541Z,9.70
2018-03-16T09:18:01.573Z,9.65
2018-03-16T09:20:29.621Z,10.68
2018-03-16T09:22:57.667Z,9.02
2018-03-16T09:25:26.487Z,9.90
2018-03-16T09:27:54.558Z,9.40
2018-03-16T09:30:23.358Z,9.73
2018-03-16T09:32:52.168Z,10.38
2018-03-16T09:35:20.221Z,7.85
2018-03-16T09:37:48.265Z,9.18
2018-03-16T09:40:16.672Z,8.10
2018-03-16T09:42:44.849Z,9.05
2018-03-16T09:45:12.880Z,9.68
2018-03-16T09:47:41.712Z,6.87
2018-03-16T09:50:09.757Z,7.00
2018-03-16T09:52:37.799Z,6.70
2018-03-16T09:55:17.640Z,7.55
2018-03-16T09:57:45.672Z,5.62
2018-03-16T10:00:13.741Z,6.45
2018-03-16T10:02:41.768Z,7.22
2018-03-16T10:05:10.589Z,6.40
2018-03-16T10:07:38.640Z,6.25
2018-03-16T10:10:06.661Z,5.12
2018-03-16T10:12:34.709Z,5.80
2018-03-16T10:15:03.507Z,6.25
2018-03-16T10:17:31.599Z,5.97
2018-03-16T10:20:00.384Z,5.65
2018-03-16T10:22:28.433Z,5.90
2018-03-16T10:24:56.463Z,6.55
2018-03-16T10:27:24.536Z,6.85
2018-03-16T10:29:52.570Z,7.20
2018-03-16T10:32:20.613Z,6.55
2018-03-16T10:34:49.439Z,8.05
2018-03-16T10:37:17.468Z,7.43
2018-03-16T10:39:45.518Z,7.50
2018-03-16T10:42:13.544Z,7.10
2018-03-16T10:44:41.604Z,8.05
2018-03-16T10:47:09.641Z,5.87
2018-03-16T10:49:38.458Z,7.87
2018-03-16T10:52:06.506Z,6.60
2018-03-16T10:54:34.532Z,6.15
2018-03-16T10:57:02.613Z,7.10
2018-03-16T10:59:30.637Z,5.93
2018-03-16T11:02:04.844Z,6.50
2018-03-16T11:04:38.532Z,6.00
2018-03-16T11:07:18.210Z,5.20
2018-03-16T11:09:46.268Z,3.50
2018-03-16T11:12:15.073Z,3.33
2018-03-16T11:14:45.808Z,3.20
2018-03-16T11:17:13.909Z,2.95
2018-03-16T11:19:42.917Z,2.65
2018-03-16T11:22:10.949Z,2.53
2018-03-16T11:24:39.011Z,2.55
2018-03-16T11:27:07.065Z,2.20
2018-03-16T11:29:35.866Z,3.10
2018-03-16T11:32:03.921Z,2.17
2018-03-16T11:34:31.985Z,2.20
2018-03-16T11:37:00.033Z,2.47
2018-03-16T11:39:28.073Z,2.40
2018-03-16T11:41:56.205Z,1.87
2018-03-16T11:44:24.265Z,1.70
2018-03-16T11:46:53.056Z,1.17
2018-03-16T11:49:21.876Z,1.85
2018-03-16T11:51:49.925Z,1.70
2018-03-16T11:54:17.984Z,1.48
2018-03-16T11:56:46.020Z,1.60
2018-03-16T11:59:14.837Z,2.25
2018-03-16T12:01:42.886Z,1.77
2018-03-16T12:04:10.913Z,2.03
2018-03-16T12:06:38.960Z,2.35
2018-03-16T12:09:07.748Z,2.30
2018-03-16T12:11:36.556Z,2.45
2018-03-16T12:14:04.598Z,2.53
2018-03-16T12:16:32.642Z,2.60
2018-03-16T12:19:01.453Z,2.45
2018-03-16T12:21:29.482Z,2.58
2018-03-16T12:23:57.537Z,2.65
2018-03-16T12:26:25.571Z,2.12
2018-03-16T12:28:53.623Z,2.50
2018-03-16T12:31:21.642Z,1.75
2018-03-16T12:33:49.687Z,2.10
2018-03-16T12:36:17.713Z,2.20
2018-03-16T12:38:45.753Z,3.10
2018-03-16T12:41:13.782Z,2.83
2018-03-16T12:43:42.617Z,2.30
2018-03-16T12:46:10.649Z,2.55
2018-03-16T12:48:38.700Z,2.47
2018-03-16T12:51:06.721Z,4.28
2018-03-16T12:53:34.790Z,4.37
2018-03-16T12:56:02.841Z,2.85
2018-03-16T12:58:30.881Z,3.15
2018-03-16T13:00:58.930Z,3.33
2018-03-16T13:03:26.960Z,2.70
2018-03-16T13:05:55.800Z,3.30
2018-03-16T13:08:23.856Z,3.70
2018-03-16T13:10:52.669Z,3.30
2018-03-16T13:13:20.700Z,3.05
2018-03-16T13:15:48.760Z,2.72
2018-03-16T13:18:16.808Z,2.85
2018-03-16T13:20:44.856Z,3.10
2018-03-16T13:23:12.962Z,2.67
2018-03-16T13:25:40.960Z,2.40
2018-03-16T13:28:09.048Z,2.58
2018-03-16T13:30:37.835Z,2.17
2018-03-16T13:33:06.675Z,2.20
2018-03-16T13:35:34.702Z,2.28
2018-03-16T13:38:02.755Z,1.80
2018-03-16T13:40:30.814Z,2.12
2018-03-16T13:42:58.850Z,1.90
2018-03-16T13:45:26.995Z,2.28
2018-03-16T13:47:55.024Z,1.80
2018-03-16T13:50:23.080Z,1.48
2018-03-16T13:52:51.117Z,1.73
2018-03-16T13:55:19.953Z,1.62
2018-03-16T13:57:47.976Z,1.70
2018-03-16T14:00:16.032Z,1.65
2018-03-16T14:02:44.076Z,1.37
2018-03-16T14:05:12.124Z,1.30
2018-03-16T14:07:40.188Z,1.70
2018-03-16T14:10:08.216Z,2.05
2018-03-16T14:12:37.037Z,1.80
2018-03-16T14:15:05.073Z,1.40
2018-03-16T14:17:33.120Z,1.70
2018-03-16T14:20:01.156Z,1.30
2018-03-16T14:22:29.972Z,1.77
2018-03-16T14:24:58.805Z,1.20
2018-03-16T14:27:26.839Z,1.00
2018-03-16T14:29:55.655Z,1.20
2018-03-16T14:32:24.793Z,1.37
2018-03-16T14:34:52.842Z,1.35
2018-03-16T14:37:21.635Z,1.37
2018-03-16T14:39:49.695Z,1.23
2018-03-16T14:42:17.770Z,1.50
2018-03-16T14:44:45.801Z,1.62
2018-03-16T14:47:15.954Z,1.20
2018-03-16T14:49:44.003Z,1.65
2018-03-16T14:52:12.044Z,1.67
2018-03-16T14:54:40.069Z,1.52
2018-03-16T14:57:08.118Z,1.35
2018-03-16T14:59:36.145Z,1.27
2018-03-16T15:02:04.956Z,1.45
2018-03-16T15:04:33.761Z,1.77
2018-03-16T15:07:02.578Z,1.37
2018-03-16T15:09:30.648Z,1.48
2018-03-16T15:11:59.444Z,1.70
2018-03-16T15:14:28.281Z,1.83
2018-03-16T15:16:56.310Z,1.45
2018-03-16T15:19:24.368Z,1.60
2018-03-16T15:21:52.388Z,1.60
2018-03-16T15:24:20.433Z,1.52
2018-03-16T15:26:48.489Z,1.77
2018-03-16T15:29:17.297Z,2.20
2018-03-16T15:31:46.119Z,1.80
2018-03-16T15:34:14.145Z,1.87
2018-03-16T15:36:42.337Z,1.70
2018-03-16T15:39:10.361Z,1.55
2018-03-16T15:41:38.426Z,1.80
2018-03-16T15:44:06.456Z,2.67
2018-03-16T15:46:34.494Z,1.62
2018-03-16T15:49:03.305Z,2.60
2018-03-16T15:51:31.330Z,2.00
2018-03-16T15:53:59.385Z,2.20
2018-03-16T15:56:27.422Z,1.75
2018-03-16T15:58:55.493Z,1.42
2018-03-16T16:01:23.532Z,1.92
2018-03-16T16:03:51.652Z,2.95
2018-03-16T16:06:20.484Z,2.17
2018-03-16T16:08:48.526Z,1.30
2018-03-16T16:11:16.592Z,1.77
2018-03-16T16:13:44.632Z,1.37
2018-03-16T16:16:12.693Z,2.00
2018-03-16T16:18:40.725Z,1.45
2018-03-16T16:21:09.813Z,1.40
2018-03-16T16:23:37.844Z,1.35
2018-03-16T16:26:05.897Z,1.67
2018-03-16T16:28:34.708Z,1.55
2018-03-16T16:31:03.511Z,2.08
2018-03-16T16:33:32.309Z,1.70
2018-03-16T16:36:01.137Z,2.50
2018-03-16T16:38:29.196Z,1.90
2018-03-16T16:40:57.993Z,2.22
2018-03-16T16:43:26.801Z,1.90
2018-03-16T16:45:54.821Z,2.50
2018-03-16T16:48:22.988Z,2.45
2018-03-16T16:50:51.230Z,1.77
2018-03-16T16:53:19.284Z,2.33
2018-03-16T16:55:47.317Z,2.62
2018-03-16T16:58:16.135Z,1.77
2018-03-16T17:00:44.177Z,2.60
2018-03-16T17:03:12.201Z,2.10
2018-03-16T17:05:40.250Z,2.10
2018-03-16T17:08:08.290Z,2.00
2018-03-16T17:10:36.333Z,1.87
2018-03-16T17:13:05.136Z,2.33
2018-03-16T17:15:33.958Z,2.37
2018-03-16T17:18:02.021Z,2.90
2018-03-16T17:20:30.087Z,2.08
2018-03-16T17:22:58.153Z,2.75
2018-03-16T17:25:26.175Z,3.10
2018-03-16T17:27:54.988Z,2.92
2018-03-16T17:30:23.022Z,2.42
2018-03-16T17:32:51.073Z,2.33
2018-03-16T17:35:19.129Z,2.70
2018-03-16T17:37:47.957Z,2.67
2018-03-16T17:40:15.998Z,2.65
2018-03-16T17:42:44.026Z,3.05
2018-03-16T17:45:12.078Z,3.28
2018-03-16T17:47:40.870Z,3.00
2018-03-16T17:50:09.744Z,3.25
2018-03-16T17:52:37.765Z,3.00
2018-03-16T17:55:07.157Z,3.37
2018-03-16T17:57:36.205Z,3.62
2018-03-16T18:00:04.240Z,3.50
2018-03-16T18:02:32.288Z,3.58
2018-03-16T18:05:00.325Z,3.85
2018-03-16T18:07:28.370Z,3.33
2018-03-16T18:09:56.397Z,3.42
2018-03-16T18:12:25.225Z,3.10
2018-03-16T18:14:53.269Z,3.60
2018-03-16T18:17:21.292Z,3.00
2018-03-16T18:19:49.386Z,2.62
2018-03-16T18:22:17.414Z,3.45
2018-03-16T18:24:45.505Z,2.50
2018-03-16T18:27:13.539Z,3.62
2018-03-16T18:29:41.589Z,3.25
2018-03-16T18:32:09.645Z,4.72
2018-03-16T18:34:37.678Z,3.50
2018-03-16T18:37:05.725Z,3.67
2018-03-16T18:39:33.765Z,3.87
2018-03-16T18:42:01.806Z,3.25
2018-03-16T18:44:30.608Z,3.20
2018-03-16T18:46:59.434Z,3.90
2018-03-16T18:49:27.473Z,3.95
2018-03-16T18:51:55.529Z,4.30
2018-03-16T18:54:23.606Z,3.20
2018-03-16T18:56:51.749Z,3.40
2018-03-16T18:59:21.467Z,3.45
2018-03-16T19:01:49.470Z,3.85
2018-03-16T19:04:17.533Z,3.12
2018-03-16T19:06:45.553Z,4.15
2018-03-16T19:09:13.597Z,3.80
2018-03-16T19:11:42.408Z,4.75
2018-03-16T19:14:11.208Z,4.97
2018-03-16T19:16:39.270Z,4.25
2018-03-16T19:19:08.812Z,4.20
2018-03-16T19:21:36.868Z,4.85
2018-03-16T19:24:04.909Z,5.50
2018-03-16T19:26:33.086Z,4.45
2018-03-16T19:29:01.891Z,5.15
2018-03-16T19:31:29.937Z,5.05
2018-03-16T19:33:57.973Z,4.82
2018-03-16T19:36:26.021Z,6.28
2018-03-16T19:38:54.809Z,4.95
2018-03-16T19:41:22.885Z,6.05
2018-03-16T19:43:51.064Z,6.07
2018-03-16T19:46:19.112Z,5.32
2018-03-16T19:48:47.208Z,5.07
2018-03-16T19:51:15.989Z,4.65
2018-03-16T19:53:44.047Z,4.07
2018-03-16T19:56:12.842Z,3.75
2018-03-16T19:58:41.657Z,4.03
2018-03-16T20:01:09.689Z,4.37
2018-03-16T20:03:37.740Z,2.92
2018-03-16T20:06:05.765Z,2.30
2018-03-16T20:08:33.913Z,3.10
2018-03-16T20:11:01.943Z,2.17
2018-03-16T20:13:29.989Z,3.00
2018-03-16T20:15:58.052Z,3.12
2018-03-16T20:18:26.109Z,2.85
2018-03-16T20:20:54.166Z,2.80
2018-03-16T20:23:22.193Z,3.10
2018-03-16T20:25:51.021Z,3.42
2018-03-16T20:28:19.061Z,3.00
2018-03-16T20:30:47.118Z,3.20
2018-03-16T20:33:15.152Z,2.62
2018-03-16T20:35:43.970Z,2.42
2018-03-16T20:38:12.035Z,3.50
2018-03-16T20:40:40.829Z,2.78
2018-03-16T20:43:09.654Z,2.50
2018-03-16T20:45:37.685Z,2.40
2018-03-16T20:48:05.768Z,2.40
2018-03-16T20:50:33.797Z,2.40
2018-03-16T20:53:01.962Z,3.00
2018-03-16T20:55:30.755Z,2.80
2018-03-16T20:57:59.593Z,3.12
2018-03-16T21:00:27.628Z,3.53
2018-03-16T21:02:55.677Z,3.42
2018-03-16T21:05:23.717Z,3.28
2018-03-16T21:07:52.535Z,3.05
2018-03-16T21:10:20.579Z,3.22
2018-03-16T21:12:48.634Z,3.97
2018-03-16T21:15:16.661Z,3.28
2018-03-16T21:17:44.748Z,3.92
2018-03-16T21:20:13.549Z,3.20
2018-03-16T21:22:42.349Z,3.78
2018-03-16T21:25:11.174Z,4.22
2018-03-16T21:27:39.966Z,4.10
2018-03-16T21:30:09.152Z,3.50
2018-03-16T21:32:37.173Z,4.62
2018-03-16T21:35:05.224Z,4.45
2018-03-16T21:37:33.252Z,5.90
2018-03-16T21:40:01.316Z,5.25
2018-03-16T21:42:30.149Z,5.50
2018-03-16T21:44:58.239Z,6.15
2018-03-16T21:47:27.021Z,6.18
2018-03-16T21:49:55.051Z,6.12
2018-03-16T21:52:23.105Z,6.82
2018-03-16T21:54:51.130Z,6.80
2018-03-16T21:57:19.954Z,7.35
2018-03-16T21:59:48.745Z,7.18
2018-03-16T22:02:17.574Z,6.45
2018-03-16T22:04:45.608Z,6.35
2018-03-16T22:07:14.274Z,6.40
2018-03-16T22:09:42.339Z,7.37
2018-03-16T22:12:10.384Z,8.45
2018-03-16T22:14:38.420Z,7.22
2018-03-16T22:17:06.481Z,9.20
2018-03-16T22:19:34.593Z,8.75
2018-03-16T22:22:02.630Z,10.27
2018-03-16T22:24:31.457Z,10.15
2018-03-16T22:26:59.521Z,9.80
2018-03-16T22:29:28.351Z,8.82
2018-03-16T22:31:56.385Z,9.38
2018-03-16T22:34:24.451Z,8.88
2018-03-16T22:36:52.484Z,6.87
2018-03-16T22:39:20.553Z,11.32
2018-03-16T22:41:49.381Z,8.82
2018-03-16T22:44:17.417Z,8.77
2018-03-16T22:46:45.468Z,11.23
2018-03-16T22:49:13.500Z,10.88
2018-03-16T22:51:42.321Z,9.90
2018-03-16T22:54:10.373Z,10.50
2018-03-16T22:56:38.434Z,11.55
2018-03-16T22:59:06.480Z,12.75
2018-03-16T23:01:34.539Z,12.45
2018-03-16T23:04:02.588Z,11.88
2018-03-16T23:06:30.638Z,10.70
2018-03-16T23:08:58.741Z,10.45
2018-03-16T23:11:26.783Z,9.80
2018-03-16T23:13:54.852Z,11.20
2018-03-16T23:16:22.893Z,13.85
2018-03-16T23:18:50.953Z,12.40
2018-03-16T23:21:19.011Z,12.37
2018-03-16T23:23:47.818Z,11.43
2018-03-16T23:26:16.637Z,10.05
2018-03-16T23:28:44.709Z,12.10
2018-03-16T23:31:13.522Z,12.15
2018-03-16T23:33:41.560Z,10.52
2018-03-16T23:36:09.633Z,11.07
2018-03-16T23:38:37.709Z,11.40
2018-03-16T23:41:05.750Z,10.65
2018-03-16T23:43:34.576Z,13.48
2018-03-16T23:46:02.631Z,10.25
2018-03-16T23:48:31.441Z,10.18
2018-03-16T23:51:01.061Z,10.90
2018-03-16T23:53:29.112Z,12.90
2018-03-16T23:55:57.161Z,10.93
2018-03-16T23:58:25.217Z,11.93
